Flight Track Log - Related Links

Times and Time Zones

All times are in EDT time to prevent confusion due to time zone crossing. See the SWA2004 flight status page for this flight to view local times or setup timezone preferences in your user account.

Time Position Orientation Groundspeed Altitude Reporting Facility
EDT Latitude Longitude Course Direction KTS MPH feet Rate Location/Type
Thu 09:20:31 PM 32.7333 -117.2167 292° West 148 170 1,600  Level Southern California TRACON
Thu 09:21:36 PM 32.7533 -117.2767 292° West 192 221 4,300 2,598 Climbing Los Angeles Center
Thu 09:22:38 PM 32.7219 -117.3336 237° Southwest 237 273 7,100 3,387 Climbing Los Angeles Center
Thu 09:23:40 PM 32.6619 -117.2781 142° Southeast 269 310 11,300 3,024 Climbing Los Angeles Center
Thu 09:24:41 PM 32.6403 -117.1758 104° East 320 368 13,300 2,683 Climbing Los Angeles Center
Thu 09:25:43 PM 32.6175 -117.0272 100° East 373 429 16,800 3,339 Climbing Los Angeles Center
Thu 09:26:45 PM 32.6194 -116.8922 89° East 410 472 20,200 2,903 Climbing Los Angeles Center
Thu 09:27:47 PM 32.6322 -116.7536 84° East 425 489 22,800 2,516 Climbing Los Angeles Center
Thu 09:28:49 PM 32.6458 -116.6092 84° East 443 510 25,400 2,274 Climbing Los Angeles Center
Thu 09:29:51 PM 32.6617 -116.4578 83° East 466 536 27,500 2,129 Climbing Los Angeles Center
Thu 09:30:53 PM 32.6781 -116.2681 84° East 495 570 29,800 1,951 Climbing Los Angeles Center
Thu 09:31:54 PM 32.6942 -116.1022 83° East 513 590 31,500 1,561 Climbing Los Angeles Center
Thu 09:32:56 PM 32.7103 -115.9317 84° East 526 605 33,000 1,645 Climbing Los Angeles Center
Thu 09:33:58 PM 32.7267 -115.7567 84° East 534 615 34,900 968 Climbing Los Angeles Center
Thu 09:35:00 PM 32.7419 -115.5856 84° East 527 606 35,000 48 Climbing Los Angeles Center
Thu 09:36:02 PM 32.7522 -115.4136 86° East 526 605 35,000 97 Level Los Angeles Center
Thu 09:37:04 PM 32.7578 -115.2069 88° East 525 604 35,200 1,065 Climbing Los Angeles Center
Thu 09:38:06 PM 32.7611 -115.0381 89° East 514 592 37,200 1,756 Climbing Los Angeles Center
Thu 09:39:07 PM 32.7650 -114.8708 88° East 509 586 38,800 1,415 Climbing Los Angeles Center
Thu 09:40:09 PM 32.7669 -114.7058 89° East 502 578 40,100 1,065 Climbing Los Angeles Center
Thu 09:41:11 PM 32.7714 -114.5411 88° East 500 575 41,000 435 Climbing Los Angeles Center
Thu 09:42:13 PM 32.7758 -114.3767 88° East 497 572 41,000  Level Los Angeles Center
Thu 09:43:15 PM 32.7769 -114.1797 90° East 498 573 41,000  Level Los Angeles Center
Thu 09:44:16 PM 32.7811 -114.0153 88° East 496 571 41,000  Level Los Angeles Center
Thu 09:45:18 PM 32.7936 -113.8522 85° East 497 572 41,000 -97 Level Los Angeles Center
Thu 09:46:20 PM 32.8206 -113.6908 79° East 498 573 40,800 -500 Descending Los Angeles Center
Thu 09:46:54 PM 32.8314 -113.5883 83° East 503 579 40,200 -1,000 Descending Albuquerque Center
Thu 09:47:56 PM 32.8542 -113.4244 81° East 502 578 39,200 -919 Descending Albuquerque Center
Thu 09:48:58 PM 32.8775 -113.2558 81° East 506 582 38,300 -1,366 Descending Albuquerque Center
Thu 09:49:59 PM 32.9014 -113.0847 81° East 515 593 36,400 -2,244 Descending Albuquerque Center
Thu 09:51:01 PM 32.9244 -112.9153 81° East 517 595 33,700 -1,659 Descending Albuquerque Center
Thu 09:52:02 PM 32.9458 -112.7483 81° East 511 588 33,000 -927 Descending Albuquerque Center
Thu 09:53:04 PM 32.9256 -112.5919 99° East 494 568 31,800 -2,244 Descending Albuquerque Center
Thu 09:54:05 PM 32.8683 -112.4467 115° Southeast 484 557 28,400 -2,878 Descending Albuquerque Center
Thu 09:55:07 PM 32.8139 -112.3019 114° Southeast 481 554 25,900 -2,293 Descending Albuquerque Center
Thu 09:56:08 PM 32.7553 -112.1528 115° Southeast 456 525 23,700 -2,098 Descending Albuquerque Center
Thu 09:57:10 PM 32.7069 -112.0269 115° Southeast 433 498 21,600 -1,951 Descending Albuquerque Center
Thu 09:58:11 PM 32.6600 -111.9050 115° Southeast 416 479 19,700 -2,049 Descending Albuquerque Center
Thu 09:59:13 PM 32.6147 -111.7911 115° Southeast 396 456 17,400 -2,224 Descending Albuquerque Center
Thu 10:00:07 PM 32.5644 -111.6739 117° Southeast 381 438 15,400 -2,100 Descending Albuquerque Center
Thu 10:00:13 PM 32.5608 -111.6647 115° Southeast 379 436 15,300 -1,714 Descending Albuquerque Center
Thu 10:00:14 PM 32.5633 -111.6594 61° Northeast 373 429 15,200 -1,770 Descending Albuquerque Center
Thu 10:01:14 PM 32.5089 -111.5725 127° Southeast 348 400 13,500 -1,742 Descending Albuquerque Center
Thu 10:01:16 PM 32.5106 -111.5661 73° East 348 400 13,400 -1,714 Descending Albuquerque Center
Thu 10:02:17 PM 32.4558 -111.4803 127° Southeast 331 381 11,700 -1,781 Descending Albuquerque Center
Thu 10:02:20 PM 32.4492 -111.4722 134° Southeast 323 372 11,500 -1,452 Descending Albuquerque Center
Thu 10:03:19 PM 32.4064 -111.4011 125° Southeast 310 357 10,200 -1,377 Descending Albuquerque Center
Thu 10:03:21 PM 32.3975 -111.3925 141° Southeast 303 349 10,100 -787 Descending Albuquerque Center
Thu 10:04:20 PM 32.3608 -111.3283 124° Southeast 285 328 9,400 -700 Descending Albuquerque Center
Thu 10:04:21 PM 32.3544 -111.3233 147° Southeast 270 311 9,400 -774 Level Albuquerque Center
Thu 10:05:22 PM 32.3594 -111.2500 85° East 255 293 8,600 -1,033 Descending Albuquerque Center
Thu 10:06:23 PM 32.3206 -111.1811 124° Southeast 235 270 7,300 -1,240 Descending Albuquerque Center
Thu 10:07:23 PM 32.2739 -111.1281 136° Southeast 234 269 6,100 -1,065 Descending Albuquerque Center
Thu 10:07:25 PM 32.2825 -111.1322 338° Northwest 239 275 6,200 -984 Climbing Albuquerque Center
Thu 10:08:24 PM 32.2236 -111.0686 138° Southeast 238 274 5,100 -1,082 Descending Albuquerque Center
Thu 10:08:26 PM 32.2261 -111.0661 40° Northeast 237 273 5,100 -885 Level Albuquerque Center
Thu 10:09:25 PM 32.1894 -111.0247 136° Southeast 181 208 4,200 -871 Descending Albuquerque Center
Thu 10:09:28 PM 32.1911 -111.0228 45° Northeast 204 235 4,200 -778 Level Albuquerque Center
Thu 10:10:19 PM 32.1617 -110.9919 138° Southeast 149 171 3,500 -393 Descending Albuquerque Center
Thu 10:10:29 PM 32.1636 -110.9908 26° Northeast 183 211 3,800 -590 Climbing Albuquerque Center
Thu 10:11:20 PM 32.1342 -110.9617 140° Southeast 140 161 2,900 -1,059 Descending Albuquerque Center
Thu 10:13:00 PM 32.1161 -110.9410 128° Southeast  Level Estimated
Thu 10:20:00 PM 32.1161 -110.9410 128° Southeast  Level Estimated

Login

Don't have an account? Register now (free) for customized features, flight alerts, and more!